logo
Slider
Κρατικός Αερολιμένας Χανίων «Ι. Δασκαλογιάννης» (ΚΑΧΝΔ), οι νεότερες φωτογραφίες
  
Τοποθεσία αεροδρομίου
Τα τελευταία μετεωρολογικά δελτία (τώρα είναι 14.11.2019 22:31 UTC)
METAR: LGSA 142220Z 23004KT 9999 FEW020TCU 15/13 Q1014
TAF: TAF LGSA 141700Z 1418/1518 25012KT 9999 FEW018TCU SCT025
Συχνότητες airband αεροδρομίου
TWR: 121.1 122.1 257.8
BULL PEN(D: 278.95
PMSV METRO: 359.4
BASE OPS: 359.4
RANGER BAS: 252.4
GND: 121.7
APP: 118.125 121.1 122.1 362.3
CHANIA RDO: 5637 2989 (5637 Opr 0400-1700Z++) (2989 Opr 1700-0400Z++)
✈ Συνολική μηνιαία επιβατική κίνηση 2017
✈ Μηνιαία επιβατική κίνηση εσωτερικού 2017
✈ Μηνιαία επιβατική κίνηση εξωτερικού 2017
✈ Συνολική επιβατική κίνηση εσωτερικού από το 1994
✈ Συνολική επιβατική κίνηση εξωτερικού από το 1994
✈ Συνολική επιβατική κίνηση από το 1994
'Ετος Σύνολο
επιβατών
± προηγούμενο έτος ± προηγούμενο έτος (%)
2016
2953278
250995
9,29%
2015
2702283
244153
9,93%
2014
2458130
379273
18,24%
2013
2078857
245883
13,40%
2012
1832974
58266
3,30%
2011
1774708
119844
7,20%
2010
1654864
-140602
-7,80%
2009
1795466
-71115
-3,80%
2008
1866581
-16253
-0,90%
2007
1882834
121875
6,90%
2006
1760959
248190
16,40%
2005
1512769
66392
4,60%
2004
1446377
-33276
-2,20%
2003
1479653
95074
6,90%
2002
1384579
-44403
-3,10%
2001
1428982
12179
0,90%
2000
1416803
186329
15,10%
1999
1230474
261283
27,00%
1998
969191
45031
4,90%
1997
924160
92908
11,20%
1996
831252
-59174
-6,60%
1995
890426
64080
7,80%
1994
826346